Airfield :
LOGIN :

Register | Disclaimer

   EN    FR    IT 

 










Legend :    VFR   Marginal VFR   IFR   Intensive IFR   Very Intensive IFR
Visi :
Ceiling :
>= 8 km
>= 3000ft
5 to 8 km
1000 to 3000 ft
1500m to 5 km
500 to 1000 ft
800 to 1500m
200 to 500 ft
< 800m
< 200 ft
Symbols :   Thunderstorms  Fog  Heavy snow  Heavy precipitations  Wind > 20 kt
SIGMETs :     Misc.  Thunderstorms  Icing  Turbulence  Mountain Waves  Volcanic Ashes






- Airport Elevation : 306 ft
- IATA code : EMA


EGNX - Nottingham East Midlands

CURRENT METAR :
  • 131750Z 22004KT 160V320 9999 SCT040 24/15 Q1023

EXPIRED METARs :
  • 131720Z 20005KT 160V230 9999 SCT039 24/15 Q1023
  • 131650Z 22005KT 190V260 9999 BKN039 24/15 Q1023
  • 131620Z 24006KT 180V280 9999 BKN039 24/15 Q1024
  • 131550Z 22006KT 190V260 9999 BKN039 24/15 Q1024
  • 131520Z 23005KT 180V300 9999 BKN038 24/14 Q1024

TAF TAF EGNX
Valid from the 13 at 18:00 until the 14 at 18:00 UTC


131657Z 1318/1418 20004KT 9999 SCT040
PROB30
TEMPO 1400/1406 8000
BECMG 1406/1409 30010KT
ATIS : +44 1332 852 852 (ext 3201)



MET'MAP, your aeronautical weather chart ! - Copyright ORBIFLY December 2007 - Disclaimer

ORBIFLY MET'MAP TEAM :

Programming & Development : Alexandra Zaïnal
Concept & original design : Baudouin d'Aumeries
Assistance for programming : Marc-Olivier Méhu
Technical & hardware support : Manuel Goepfert

Contact : metmap@orbifly.com




SOURCES & CREDITS :

   NOAA